Time;durP1;ratioP1;P1;durP2;ratioP2;P2;SDS_P1;SDS_P2;PMS_P1;PMS_P2;Temp;Humidity;BMP_temperature;BMP_pressure;BME280_temperature;BME280_humidity;BME280_pressure;Samples;Min_cycle;Max_cycle;Signal;HPM_P1;HPM_P2
2023/09/03 00:02:25;;;;;;;9.32;2.90;;;20.40;71.20;;;;;;5094584;28;20194;-62
2023/09/03 00:04:58;;;;;;;10.00;3.40;;;20.30;71.10;;;;;;5094338;28;20642;-62
2023/09/03 00:07:26;;;;;;;6.32;2.90;;;20.40;71.30;;;;;;5094698;28;20277;-63
2023/09/03 00:09:55;;;;;;;7.47;3.30;;;20.30;71.20;;;;;;5094781;28;20182;-62
2023/09/03 00:12:22;;;;;;;7.25;3.22;;;20.30;71.20;;;;;;5094301;28;20285;-62
2023/09/03 00:14:49;;;;;;;6.15;3.33;;;20.30;71.30;;;;;;5093567;28;20201;-62
2023/09/03 00:17:17;;;;;;;5.82;3.20;;;20.40;71.40;;;;;;5094699;28;20239;-63
2023/09/03 00:19:51;;;;;;;7.47;3.28;;;20.30;71.40;;;;;;5094392;28;20206;-62
2023/09/03 00:22:24;;;;;;;9.80;3.83;;;20.30;71.40;;;;;;5094353;28;20182;-63
2023/09/03 00:24:52;;;;;;;8.27;3.33;;;20.30;71.50;;;;;;5094464;28;20186;-62
2023/09/03 00:27:21;;;;;;;8.13;4.05;;;20.30;71.50;;;;;;5094137;28;20186;-63
2023/09/03 00:29:48;;;;;;;8.35;4.03;;;20.30;71.50;;;;;;5093972;28;20277;-61
2023/09/03 00:32:15;;;;;;;11.52;4.40;;;20.40;71.70;;;;;;5094337;28;20251;-63
2023/09/03 00:34:43;;;;;;;11.40;3.85;;;20.40;71.70;;;;;;5094277;28;20273;-60
2023/09/03 00:37:10;;;;;;;10.80;4.20;;;20.30;71.60;;;;;;5094080;28;20188;-63
2023/09/03 00:39:37;;;;;;;11.52;5.03;;;20.30;71.60;;;;;;5094192;28;20217;-61
2023/09/03 00:42:05;;;;;;;11.90;4.80;;;20.30;71.70;;;;;;5094174;28;20195;-62
2023/09/03 00:44:33;;;;;;;10.55;4.00;;;20.30;71.60;;;;;;5093527;28;20197;-59
2023/09/03 00:47:01;;;;;;;7.88;3.97;;;20.30;71.70;;;;;;5094038;28;20197;-61
2023/09/03 00:49:29;;;;;;;7.90;4.47;;;20.40;71.80;;;;;;5093930;28;20195;-61
2023/09/03 00:51:57;;;;;;;9.32;4.00;;;20.30;71.70;;;;;;5093555;28;20186;-60
2023/09/03 00:54:26;;;;;;;11.10;4.13;;;20.30;71.70;;;;;;5093581;28;20282;-63
2023/09/03 00:56:54;;;;;;;10.02;4.20;;;20.30;71.70;;;;;;5093959;28;20186;-60
2023/09/03 00:59:23;;;;;;;8.25;3.75;;;20.30;71.70;;;;;;5093627;28;20339;-62
2023/09/03 01:01:53;;;;;;;9.65;3.92;;;20.30;71.70;;;;;;5093728;28;20186;-59
2023/09/03 01:04:20;;;;;;;8.35;4.00;;;20.30;71.70;;;;;;5093366;28;20222;-62
2023/09/03 01:06:49;;;;;;;8.10;4.45;;;20.40;71.80;;;;;;5093912;28;20194;-62
2023/09/03 01:09:18;;;;;;;8.98;3.50;;;20.30;71.80;;;;;;5093596;28;20193;-63
2023/09/03 01:11:52;;;;;;;9.95;4.07;;;20.30;71.80;;;;;;5093493;28;20222;-63
2023/09/03 01:14:29;;;;;;;12.10;3.75;;;20.30;71.80;;;;;;5093606;28;20202;-58
2023/09/03 01:17:03;;;;;;;10.13;4.60;;;20.30;71.90;;;;;;5093216;28;20660;-62
2023/09/03 01:19:55;;;;;;;7.15;4.07;;;20.30;71.90;;;;;;5093153;28;20243;-63
2023/09/03 01:22:32;;;;;;;10.90;4.55;;;20.30;71.90;;;;;;5090657;28;20202;-64
2023/09/03 01:25:11;;;;;;;6.93;4.43;;;20.30;71.90;;;;;;5093031;28;20193;-63
2023/09/03 01:27:44;;;;;;;8.30;4.72;;;20.30;71.90;;;;;;5092793;28;20277;-64
2023/09/03 01:30:15;;;;;;;6.63;4.57;;;20.30;71.90;;;;;;5075336;28;20202;-62
2023/09/03 01:32:43;;;;;;;8.75;4.85;;;20.30;71.90;;;;;;5093243;28;20265;-64
2023/09/03 01:35:15;;;;;;;9.27;5.30;;;20.30;72.00;;;;;;5092902;28;20189;-63
2023/09/03 01:37:42;;;;;;;8.43;4.63;;;20.30;71.90;;;;;;5092152;28;20216;-62
2023/09/03 01:40:11;;;;;;;10.15;4.97;;;20.30;72.00;;;;;;5092905;28;20214;-62
2023/09/03 01:42:42;;;;;;;11.00;5.10;;;20.30;72.00;;;;;;5092817;28;20274;-61
2023/09/03 01:48:58;;;;;;;10.13;4.75;;;20.30;71.90;;;;;;5092665;28;20169;-63
2023/09/03 01:51:36;;;;;;;12.35;4.63;;;20.30;72.10;;;;;;5092937;28;20190;-62
2023/09/03 01:54:09;;;;;;;10.25;4.65;;;20.30;72.10;;;;;;5092863;28;20236;-60
2023/09/03 01:56:42;;;;;;;10.27;4.55;;;20.30;72.40;;;;;;5092295;28;20190;-58
2023/09/03 01:59:17;;;;;;;12.07;4.50;;;20.30;72.60;;;;;;5092702;28;20273;-63
2023/09/03 02:01:45;;;;;;;15.77;4.78;;;20.30;72.80;;;;;;5092639;28;20225;-63
2023/09/03 02:04:14;;;;;;;10.40;4.32;;;20.20;73.00;;;;;;5092388;28;20222;-60
2023/09/03 02:06:46;;;;;;;14.45;4.63;;;20.30;73.20;;;;;;5092849;28;20281;-62
2023/09/03 02:09:14;;;;;;;11.77;5.25;;;20.30;73.40;;;;;;5090575;28;20212;-62
2023/09/03 02:11:42;;;;;;;10.30;4.95;;;20.30;73.60;;;;;;5080721;28;20567;-63
2023/09/03 02:14:09;;;;;;;12.10;4.88;;;20.20;73.60;;;;;;5081651;28;20588;-59
2023/09/03 02:16:55;;;;;;;13.75;4.85;;;20.30;73.70;;;;;;5092554;28;20194;-60
2023/09/03 02:19:23;;;;;;;10.35;4.90;;;20.30;73.90;;;;;;5074413;28;20202;-62
2023/09/03 02:21:51;;;;;;;10.75;4.82;;;20.30;73.80;;;;;;5071912;28;20311;-61
2023/09/03 02:24:19;;;;;;;15.13;5.00;;;20.30;73.80;;;;;;5072240;28;20282;-63
2023/09/03 02:26:47;;;;;;;13.20;5.90;;;20.30;73.90;;;;;;5071772;28;20277;-63
2023/09/03 02:29:15;;;;;;;12.00;5.00;;;20.30;73.80;;;;;;5071779;28;20277;-63
2023/09/03 02:31:42;;;;;;;14.40;5.45;;;20.30;74.20;;;;;;5072227;28;20201;-63
2023/09/03 02:34:10;;;;;;;10.45;4.90;;;20.30;74.20;;;;;;5071907;28;20187;-61
2023/09/03 02:36:46;;;;;;;11.95;5.25;;;20.30;74.40;;;;;;5072937;28;20199;-63
2023/09/03 02:39:14;;;;;;;11.35;4.97;;;20.30;74.40;;;;;;5076233;28;20194;-61
2023/09/03 02:41:41;;;;;;;16.48;5.82;;;20.30;74.50;;;;;;5075960;28;20215;-62
2023/09/03 02:44:09;;;;;;;19.15;5.65;;;20.30;74.50;;;;;;5075874;28;20191;-60
2023/09/03 02:46:39;;;;;;;12.50;5.75;;;20.30;74.50;;;;;;5075775;28;20195;-62
2023/09/03 02:49:07;;;;;;;17.67;6.22;;;20.30;74.60;;;;;;5075580;28;20229;-62
2023/09/03 02:51:38;;;;;;;12.05;5.80;;;20.30;74.70;;;;;;5075756;28;20670;-62
2023/09/03 02:54:07;;;;;;;16.98;5.90;;;20.30;74.60;;;;;;5076074;28;20354;-62
2023/09/03 02:56:35;;;;;;;15.10;5.93;;;20.20;74.60;;;;;;5075690;28;20183;-63
2023/09/03 02:59:03;;;;;;;15.88;6.20;;;20.30;74.70;;;;;;5075587;28;20194;-63
2023/09/03 03:01:30;;;;;;;13.38;5.43;;;20.30;74.70;;;;;;5075748;28;20297;-62
2023/09/03 03:04:09;;;;;;;18.67;6.38;;;20.30;74.70;;;;;;5075101;28;20290;-63
2023/09/03 03:06:47;;;;;;;14.68;5.78;;;20.30;74.80;;;;;;5075785;28;20187;-62
2023/09/03 03:09:20;;;;;;;14.23;6.07;;;20.40;74.90;;;;;;5069941;28;20291;-62
2023/09/03 03:11:47;;;;;;;12.35;6.18;;;20.30;74.80;;;;;;5075463;28;20195;-61
2023/09/03 03:14:14;;;;;;;12.27;6.03;;;20.30;74.90;;;;;;5075547;28;20274;-61
2023/09/03 03:16:42;;;;;;;12.48;6.35;;;20.30;75.00;;;;;;5075545;28;20187;-62
2023/09/03 03:19:09;;;;;;;13.40;5.80;;;20.30;75.00;;;;;;5075168;28;20197;-59
2023/09/03 03:21:37;;;;;;;14.57;6.60;;;20.30;75.00;;;;;;5075438;28;20215;-60
2023/09/03 03:24:07;;;;;;;17.10;6.45;;;20.30;75.00;;;;;;5075419;28;20198;-61
2023/09/03 03:26:37;;;;;;;15.18;6.20;;;20.30;75.00;;;;;;5074964;28;20187;-61
2023/09/03 03:29:07;;;;;;;16.60;6.70;;;20.30;75.10;;;;;;5074961;28;20190;-63
2023/09/03 03:31:35;;;;;;;17.65;5.93;;;20.30;75.00;;;;;;5074988;28;20671;-61
2023/09/03 03:34:02;;;;;;;17.60;6.95;;;20.30;75.10;;;;;;5074980;28;20187;-60
2023/09/03 03:36:30;;;;;;;15.13;7.30;;;20.30;75.00;;;;;;5075132;28;20194;-62
2023/09/03 03:38:58;;;;;;;15.95;6.88;;;20.30;75.10;;;;;;5075091;28;20218;-58
2023/09/03 03:41:25;;;;;;;13.20;6.07;;;20.30;75.10;;;;;;5074842;28;20468;-62
2023/09/03 03:43:54;;;;;;;17.15;6.30;;;20.30;75.20;;;;;;5075035;28;20287;-62
2023/09/03 03:46:21;;;;;;;15.55;6.65;;;20.30;75.20;;;;;;5074693;28;20187;-59
2023/09/03 03:48:50;;;;;;;13.35;6.57;;;20.30;75.30;;;;;;5074650;28;20244;-61
2023/09/03 03:51:17;;;;;;;15.95;6.63;;;20.30;75.40;;;;;;5074990;28;20380;-60
2023/09/03 03:53:44;;;;;;;14.52;6.55;;;20.30;75.40;;;;;;5074565;28;20187;-61
2023/09/03 03:56:13;;;;;;;19.20;6.78;;;20.30;75.30;;;;;;5074626;28;20274;-62
2023/09/03 03:58:41;;;;;;;23.58;7.50;;;20.30;75.50;;;;;;5074720;28;20183;-60
2023/09/03 04:01:15;;;;;;;19.10;7.93;;;20.30;75.60;;;;;;5074743;28;20225;-62
2023/09/03 04:03:42;;;;;;;20.23;7.68;;;20.30;75.70;;;;;;5073874;28;20209;-61
2023/09/03 04:06:20;;;;;;;18.83;8.20;;;20.30;75.70;;;;;;5074691;28;20256;-61
2023/09/03 04:08:48;;;;;;;19.88;8.48;;;20.30;76.00;;;;;;5074558;28;20190;-62
2023/09/03 04:11:19;;;;;;;19.92;8.95;;;20.30;76.00;;;;;;5074377;28;20191;-61
2023/09/03 04:13:46;;;;;;;20.15;9.80;;;20.30;76.10;;;;;;5074460;28;20605;-58
2023/09/03 04:16:17;;;;;;;25.13;10.38;;;20.30;76.30;;;;;;5074208;28;20187;-58
2023/09/03 04:18:44;;;;;;;21.75;10.05;;;20.30;76.30;;;;;;5073916;28;20198;-60
2023/09/03 04:21:12;;;;;;;21.23;10.55;;;20.30;76.30;;;;;;5074257;28;20218;-61
2023/09/03 04:23:40;;;;;;;23.17;10.38;;;20.30;76.50;;;;;;5074288;28;20187;-62
2023/09/03 04:26:16;;;;;;;18.85;10.13;;;20.30;76.40;;;;;;5074110;28;20195;-57
2023/09/03 04:28:43;;;;;;;26.67;11.05;;;20.30;76.60;;;;;;5074221;28;20237;-62
2023/09/03 04:31:39;;;;;;;27.75;12.23;;;20.30;76.50;;;;;;5074155;28;20269;-60
2023/09/03 04:34:39;;;;;;;19.60;12.32;;;20.20;76.60;;;;;;5071007;28;20199;-58
2023/09/03 04:37:07;;;;;;;28.73;13.35;;;20.30;76.90;;;;;;5069074;28;20195;-61
2023/09/03 04:39:35;;;;;;;22.17;12.00;;;20.30;76.90;;;;;;5073449;28;20187;-60
2023/09/03 04:42:04;;;;;;;26.52;13.68;;;20.30;76.80;;;;;;5073965;28;20221;-56
2023/09/03 04:44:32;;;;;;;24.33;13.38;;;20.30;76.90;;;;;;5073494;28;20187;-59
2023/09/03 04:46:59;;;;;;;26.08;13.32;;;20.30;76.90;;;;;;5073377;28;20214;-58
2023/09/03 04:49:27;;;;;;;29.00;12.25;;;20.30;76.90;;;;;;5073697;28;20270;-59
2023/09/03 04:51:54;;;;;;;26.50;13.77;;;20.30;76.90;;;;;;5073862;28;20209;-59
2023/09/03 04:54:23;;;;;;;32.63;14.68;;;20.30;76.90;;;;;;5073458;28;20186;-60
2023/09/03 04:56:51;;;;;;;30.92;15.15;;;20.30;76.90;;;;;;5073596;28;20203;-58
2023/09/03 04:59:18;;;;;;;36.38;15.90;;;20.30;77.00;;;;;;5072982;28;20256;-58
2023/09/03 05:01:46;;;;;;;30.60;15.65;;;20.30;76.90;;;;;;5073197;28;20219;-61
2023/09/03 05:04:13;;;;;;;27.92;14.63;;;20.30;76.90;;;;;;5073198;28;20230;-61
2023/09/03 05:06:40;;;;;;;32.47;16.20;;;20.30;77.00;;;;;;5073719;28;20210;-59
2023/09/03 05:09:08;;;;;;;34.53;16.55;;;20.30;77.00;;;;;;5073377;28;20203;-61
2023/09/03 05:11:39;;;;;;;30.80;15.95;;;20.30;77.00;;;;;;5073349;28;20191;-61
2023/09/03 05:14:07;;;;;;;33.13;16.58;;;20.30;77.10;;;;;;5073252;28;20191;-59
2023/09/03 05:16:34;;;;;;;29.08;15.80;;;20.40;77.30;;;;;;5073072;28;20186;-58
2023/09/03 05:19:06;;;;;;;38.25;18.20;;;20.30;77.10;;;;;;5073186;28;20191;-58
2023/09/03 05:21:33;;;;;;;38.78;18.17;;;20.30;77.20;;;;;;5073112;28;20219;-62
2023/09/03 05:24:01;;;;;;;34.28;17.38;;;20.40;77.40;;;;;;5072909;28;20187;-60
2023/09/03 05:26:28;;;;;;;38.05;18.63;;;20.30;77.10;;;;;;5073056;28;20191;-59
2023/09/03 05:28:57;;;;;;;33.78;17.25;;;20.30;77.30;;;;;;5072892;28;20212;-60
2023/09/03 05:31:24;;;;;;;34.45;18.20;;;20.30;77.30;;;;;;5072738;28;20203;-58
2023/09/03 05:33:52;;;;;;;35.97;18.55;;;20.30;77.30;;;;;;5072631;28;20686;-60
2023/09/03 05:36:19;;;;;;;39.45;18.52;;;20.30;77.30;;;;;;5072881;28;20183;-56
2023/09/03 05:38:46;;;;;;;39.50;17.08;;;20.30;77.40;;;;;;5072569;28;20186;-61
2023/09/03 05:41:13;;;;;;;54.75;20.35;;;20.30;77.50;;;;;;5072788;28;20305;-59
2023/09/03 05:43:41;;;;;;;43.42;19.92;;;20.40;77.60;;;;;;5072349;28;20290;-60
2023/09/03 05:46:10;;;;;;;40.67;19.05;;;20.30;77.40;;;;;;5072553;28;20194;-61
2023/09/03 05:48:37;;;;;;;41.05;20.42;;;20.40;77.60;;;;;;5072603;28;20187;-58
2023/09/03 05:54:38;;;;;;;39.97;18.75;;;20.40;77.60;;;;;;4990536;28;20316;-57
2023/09/03 05:57:30;;;;;;;39.47;18.85;;;20.30;77.50;;;;;;5065842;28;20233;-59
2023/09/03 05:59:58;;;;;;;47.13;20.40;;;20.30;77.60;;;;;;5057619;28;20203;-57
2023/09/03 06:02:27;;;;;;;40.20;20.38;;;20.30;77.50;;;;;;5071895;28;20273;-58
2023/09/03 06:04:54;;;;;;;40.80;19.77;;;20.30;77.60;;;;;;5072550;28;20294;-61
2023/09/03 06:07:21;;;;;;;44.90;20.50;;;20.40;77.70;;;;;;5072621;28;20221;-61
2023/09/03 06:09:48;;;;;;;45.92;21.33;;;20.30;77.60;;;;;;5072190;28;20277;-60
2023/09/03 06:12:16;;;;;;;43.45;20.45;;;20.30;77.60;;;;;;5071526;28;20199;-61
2023/09/03 06:14:43;;;;;;;46.63;20.92;;;20.30;78.40;;;;;;5071982;28;20195;-60
2023/09/03 06:17:10;;;;;;;39.55;20.88;;;20.40;77.70;;;;;;5072018;28;20190;-60
2023/09/03 06:19:40;;;;;;;41.90;20.58;;;20.40;77.90;;;;;;5072053;28;20191;-58
2023/09/03 06:22:07;;;;;;;40.00;19.80;;;20.30;77.80;;;;;;5072207;28;20310;-58
2023/09/03 06:24:35;;;;;;;45.85;21.25;;;20.30;77.80;;;;;;5072055;28;20279;-59
2023/09/03 06:27:11;;;;;;;47.00;21.02;;;20.30;77.90;;;;;;5071917;28;20225;-60
2023/09/03 06:29:38;;;;;;;42.95;20.83;;;20.40;78.10;;;;;;5071857;28;20194;-57
2023/09/03 06:32:06;;;;;;;42.35;21.35;;;20.30;77.90;;;;;;5072274;28;20186;-59
2023/09/03 06:34:33;;;;;;;43.60;21.02;;;20.40;78.20;;;;;;5072107;28;20238;-60
2023/09/03 06:37:02;;;;;;;42.28;19.50;;;20.30;78.90;;;;;;5072154;28;20194;-59
2023/09/03 06:39:30;;;;;;;41.35;20.55;;;20.40;78.00;;;;;;5071546;28;20277;-58
2023/09/03 06:41:57;;;;;;;42.83;20.77;;;20.40;78.00;;;;;;5071934;28;20588;-60
2023/09/03 06:44:25;;;;;;;47.50;21.17;;;20.30;78.10;;;;;;5072017;28;20187;-56
2023/09/03 06:46:52;;;;;;;45.72;20.65;;;20.40;78.20;;;;;;5071501;28;20654;-59
2023/09/03 06:49:20;;;;;;;47.42;22.30;;;20.40;78.30;;;;;;5071928;28;20191;-57
2023/09/03 06:51:47;;;;;;;47.58;21.33;;;20.30;78.20;;;;;;5071659;28;20662;-61
2023/09/03 06:54:16;;;;;;;45.17;20.98;;;20.40;78.40;;;;;;5071834;28;20187;-61
2023/09/03 06:56:44;;;;;;;42.90;21.27;;;20.40;78.50;;;;;;5071898;28;20243;-60
2023/09/03 06:59:11;;;;;;;42.63;21.05;;;20.40;78.50;;;;;;5071783;28;20199;-59
2023/09/03 07:01:39;;;;;;;41.67;21.70;;;20.40;78.40;;;;;;5071283;28;20697;-59
2023/09/03 07:04:06;;;;;;;47.05;21.55;;;20.40;78.50;;;;;;5071322;28;20313;-61
2023/09/03 07:06:33;;;;;;;43.83;20.67;;;20.40;78.60;;;;;;5071794;28;20248;-58
2023/09/03 07:09:00;;;;;;;42.10;20.77;;;20.40;78.50;;;;;;5071787;28;20199;-61
2023/09/03 07:11:29;;;;;;;41.90;21.85;;;20.40;78.60;;;;;;5072083;28;20241;-59
2023/09/03 07:13:56;;;;;;;43.85;21.20;;;20.40;78.60;;;;;;5071422;28;20187;-58
2023/09/03 07:16:24;;;;;;;55.55;22.65;;;20.40;78.80;;;;;;5071452;28;20209;-60
2023/09/03 07:19:28;;;;;;;43.17;20.42;;;20.40;78.70;;;;;;5071251;28;20195;-61
2023/09/03 07:22:01;;;;;;;44.50;21.77;;;20.40;78.80;;;;;;5070905;28;20305;-60
2023/09/03 07:24:29;;;;;;;40.08;21.30;;;20.40;79.70;;;;;;5075353;28;20417;-59
2023/09/03 07:26:58;;;;;;;45.03;20.92;;;20.40;79.10;;;;;;5075429;28;20252;-61
2023/09/03 07:29:25;;;;;;;41.97;20.65;;;20.40;79.00;;;;;;5075022;28;20195;-59
2023/09/03 07:31:53;;;;;;;39.72;20.23;;;20.40;79.10;;;;;;5075314;28;20563;-60
2023/09/03 07:34:20;;;;;;;43.78;21.38;;;20.40;79.20;;;;;;5074981;28;20232;-61
2023/09/03 07:36:48;;;;;;;38.95;20.25;;;20.40;79.20;;;;;;5074978;28;20187;-61
2023/09/03 07:39:15;;;;;;;40.28;21.33;;;20.40;79.10;;;;;;5075058;28;20190;-61
2023/09/03 07:41:43;;;;;;;41.20;21.35;;;20.40;79.00;;;;;;5074955;28;20214;-58
2023/09/03 07:44:11;;;;;;;39.13;20.77;;;20.40;79.20;;;;;;5074871;28;20195;-56
2023/09/03 07:46:39;;;;;;;43.78;22.15;;;20.50;79.50;;;;;;5074783;28;20253;-60
2023/09/03 07:49:06;;;;;;;47.47;21.38;;;20.40;79.50;;;;;;5075016;28;20183;-58
2023/09/03 07:51:34;;;;;;;38.95;19.83;;;20.50;79.80;;;;;;5074481;28;20222;-58
2023/09/03 07:54:01;;;;;;;37.30;19.90;;;20.50;79.90;;;;;;5074911;28;20187;-55
2023/09/03 07:56:30;;;;;;;34.45;18.83;;;20.40;79.60;;;;;;5074970;28;20191;-59
2023/09/03 07:58:57;;;;;;;36.13;19.13;;;20.40;79.00;;;;;;5074542;28;20237;-59
2023/09/03 08:01:26;;;;;;;36.30;20.27;;;20.50;79.20;;;;;;5074692;28;20272;-59
2023/09/03 08:03:53;;;;;;;37.28;19.75;;;20.50;79.30;;;;;;5074620;28;20183;-59
2023/09/03 08:06:21;;;;;;;41.97;20.00;;;20.50;79.30;;;;;;5074547;28;20195;-59
2023/09/03 08:08:53;;;;;;;34.28;19.20;;;20.50;79.20;;;;;;5074697;28;20202;-59
2023/09/03 08:11:21;;;;;;;36.38;19.30;;;20.50;79.30;;;;;;5074575;28;20183;-58
2023/09/03 08:13:57;;;;;;;35.88;18.85;;;20.50;79.40;;;;;;5074341;28;20190;-57
2023/09/03 08:16:31;;;;;;;35.45;17.60;;;20.50;79.40;;;;;;5074572;28;20202;-59
2023/09/03 08:18:59;;;;;;;32.55;18.58;;;20.50;79.40;;;;;;5074165;28;20197;-58
2023/09/03 08:21:26;;;;;;;33.10;17.95;;;20.50;79.20;;;;;;5074264;28;20187;-60
2023/09/03 08:23:54;;;;;;;32.58;17.67;;;20.60;79.20;;;;;;5073979;28;20309;-60
2023/09/03 08:26:21;;;;;;;33.78;17.95;;;20.50;79.20;;;;;;5074056;28;20242;-60
2023/09/03 08:28:49;;;;;;;34.83;19.25;;;20.50;79.20;;;;;;5073990;28;20256;-60
2023/09/03 08:31:18;;;;;;;33.85;17.55;;;20.60;79.30;;;;;;5074299;28;20187;-61
2023/09/03 08:34:02;;;;;;;27.63;16.10;;;20.60;80.20;;;;;;5073699;28;20555;-57
2023/09/03 08:36:29;;;;;;;27.80;16.50;;;20.50;79.20;;;;;;5072144;28;20198;-61
2023/09/03 08:39:15;;;;;;;28.80;15.27;;;20.50;79.00;;;;;;5074292;28;20195;-60
2023/09/03 08:42:00;;;;;;;27.80;16.00;;;20.60;79.00;;;;;;5073634;28;20281;-58
2023/09/03 08:44:34;;;;;;;27.55;16.05;;;20.60;79.20;;;;;;5073691;28;20191;-61
2023/09/03 08:47:04;;;;;;;27.50;15.75;;;20.60;79.20;;;;;;5073832;28;20263;-59
2023/09/03 08:49:35;;;;;;;27.80;15.23;;;20.60;79.60;;;;;;5073923;28;20195;-59
2023/09/03 08:52:03;;;;;;;34.40;17.48;;;20.50;79.60;;;;;;5073217;28;20199;-60
2023/09/03 08:54:30;;;;;;;29.77;15.80;;;20.60;79.90;;;;;;5073517;28;20194;-57
2023/09/03 08:57:01;;;;;;;28.00;16.45;;;20.60;80.00;;;;;;5073676;28;20191;-59
2023/09/03 08:59:38;;;;;;;31.67;15.52;;;20.60;80.10;;;;;;5073331;28;20191;-59
2023/09/03 09:02:12;;;;;;;28.75;16.00;;;20.70;81.00;;;;;;5073357;28;20216;-60
2023/09/03 09:04:41;;;;;;;31.67;16.50;;;20.70;81.00;;;;;;5073070;28;20309;-60
2023/09/03 09:07:09;;;;;;;30.02;14.93;;;20.70;80.40;;;;;;5073518;28;20440;-59
2023/09/03 09:09:38;;;;;;;32.03;15.77;;;20.60;80.10;;;;;;5073122;28;20262;-59
2023/09/03 09:12:13;;;;;;;28.45;15.40;;;20.70;80.30;;;;;;5073361;28;20206;-58
2023/09/03 09:14:47;;;;;;;39.45;18.98;;;20.70;80.30;;;;;;5072761;28;20187;-60
2023/09/03 09:17:16;;;;;;;48.00;16.90;;;20.60;80.40;;;;;;5073127;28;20271;-59
2023/09/03 09:19:45;;;;;;;33.78;16.83;;;20.70;80.80;;;;;;5073247;28;20277;-56
2023/09/03 09:22:12;;;;;;;40.92;18.33;;;20.70;80.60;;;;;;5072926;28;20223;-58
2023/09/03 09:24:44;;;;;;;29.80;16.40;;;20.70;80.50;;;;;;5073161;28;20195;-60
2023/09/03 09:27:15;;;;;;;40.72;18.40;;;20.60;80.40;;;;;;5073021;28;20187;-60
2023/09/03 09:29:46;;;;;;;36.17;18.52;;;20.70;80.40;;;;;;5072487;28;20647;-59
2023/09/03 09:32:20;;;;;;;40.72;18.23;;;20.80;80.60;;;;;;5072998;28;20274;-60
2023/09/03 09:34:57;;;;;;;36.17;18.70;;;20.80;80.80;;;;;;5072855;28;20183;-59
2023/09/03 09:37:25;;;;;;;32.72;17.10;;;20.80;80.90;;;;;;5072488;28;20223;-57
2023/09/03 09:39:52;;;;;;;41.60;19.10;;;20.70;80.80;;;;;;5072830;28;20200;-59
2023/09/03 09:42:19;;;;;;;31.00;17.70;;;20.60;80.60;;;;;;5072663;28;20280;-59
2023/09/03 09:45:00;;;;;;;32.58;17.52;;;20.80;80.90;;;;;;5072331;28;20214;-59
2023/09/03 09:47:27;;;;;;;42.70;19.33;;;20.70;80.90;;;;;;5072750;28;20201;-58
2023/09/03 09:49:56;;;;;;;39.30;18.55;;;20.80;81.10;;;;;;5072098;28;20215;-58
2023/09/03 09:52:33;;;;;;;38.25;18.48;;;20.80;81.10;;;;;;5072718;28;20220;-59
2023/09/03 09:55:00;;;;;;;38.35;17.48;;;20.70;81.00;;;;;;5072624;28;20182;-60
2023/09/03 09:57:27;;;;;;;39.17;19.02;;;20.70;81.00;;;;;;5072344;28;20190;-58
2023/09/03 09:59:56;;;;;;;35.15;18.42;;;20.80;81.10;;;;;;5072194;28;20279;-60
2023/09/03 10:02:44;;;;;;;38.40;19.58;;;20.80;81.10;;;;;;5072081;28;20219;-56
2023/09/03 10:05:16;;;;;;;37.95;19.00;;;20.80;81.10;;;;;;5039056;28;20318;-59
2023/09/03 10:07:56;;;;;;;38.20;18.60;;;20.80;81.20;;;;;;5072121;28;20277;-56
2023/09/03 10:10:23;;;;;;;35.83;19.52;;;20.80;81.20;;;;;;5037252;28;20210;-59
2023/09/03 10:13:23;;;;;;;38.08;18.92;;;20.80;81.20;;;;;;5071891;28;20195;-60
2023/09/03 10:15:52;;;;;;;36.38;19.33;;;20.80;81.20;;;;;;5067489;28;20203;-59
2023/09/03 10:18:20;;;;;;;43.88;19.23;;;20.80;81.40;;;;;;5072376;28;20190;-59
2023/09/03 10:20:50;;;;;;;39.58;19.25;;;20.80;81.40;;;;;;5072188;28;20203;-58
2023/09/03 10:23:21;;;;;;;38.10;19.30;;;20.80;81.50;;;;;;5072220;28;20218;-57
2023/09/03 10:25:52;;;;;;;41.20;19.67;;;20.90;81.70;;;;;;5072221;28;20194;-58
2023/09/03 10:28:23;;;;;;;39.85;20.35;;;20.80;81.50;;;;;;5072050;28;20269;-60
2023/09/03 10:30:54;;;;;;;40.25;20.80;;;20.90;81.60;;;;;;5072164;28;20244;-60
2023/09/03 10:33:21;;;;;;;33.75;18.20;;;20.90;81.60;;;;;;5072257;28;20226;-58
2023/09/03 10:36:14;;;;;;;32.45;20.50;;;20.90;81.60;;;;;;5071856;28;20190;-59
2023/09/03 10:38:42;;;;;;;30.58;19.13;;;20.90;81.70;;;;;;5071906;28;20289;-58
2023/09/03 10:41:23;;;;;;;42.72;20.40;;;20.90;81.70;;;;;;5072136;28;20191;-60
2023/09/03 10:43:51;;;;;;;31.92;19.65;;;20.80;81.60;;;;;;5071494;28;20222;-59
2023/09/03 10:46:20;;;;;;;42.53;19.65;;;20.90;81.70;;;;;;5072063;28;20230;-58
2023/09/03 10:48:55;;;;;;;37.30;19.50;;;20.90;81.70;;;;;;5071924;28;20551;-59
2023/09/03 10:51:35;;;;;;;36.30;19.88;;;20.80;81.50;;;;;;5071918;28;20182;-58
2023/09/03 10:54:19;;;;;;;36.28;19.75;;;20.90;82.30;;;;;;5071993;28;20195;-58
2023/09/03 11:00:18;;;;;;;33.42;18.70;;;20.90;81.50;;;;;;5074119;28;20230;-59
2023/09/03 11:02:46;;;;;;;33.85;18.70;;;20.90;81.50;;;;;;5075514;28;20694;-59
2023/09/03 11:05:14;;;;;;;29.42;18.17;;;20.90;81.50;;;;;;5075354;28;20279;-57
2023/09/03 11:07:44;;;;;;;36.50;19.08;;;20.90;81.40;;;;;;5075994;28;20225;-58
2023/09/03 11:10:39;;;;;;;36.30;19.27;;;20.80;81.20;;;;;;5075422;28;20236;-54
2023/09/03 11:13:15;;;;;;;31.38;18.63;;;20.90;81.40;;;;;;5075425;28;20191;-57
2023/09/03 11:15:55;;;;;;;35.70;18.92;;;20.90;81.30;;;;;;5075924;28;20327;-57
2023/09/03 11:18:23;;;;;;;32.38;18.52;;;20.90;81.30;;;;;;5075203;28;20685;-57
2023/09/03 11:20:51;;;;;;;36.30;19.05;;;20.90;81.30;;;;;;5075304;28;20183;-57
2023/09/03 11:23:20;;;;;;;34.08;18.88;;;21.00;81.40;;;;;;5075342;28;20301;-57
2023/09/03 11:26:02;;;;;;;35.13;18.20;;;21.00;81.40;;;;;;5075339;28;20599;-57
2023/09/03 11:31:26;;;;;;;33.13;18.35;;;20.90;81.30;;;;;;5073359;28;20205;-56
2023/09/03 11:33:55;;;;;;;33.47;18.27;;;20.90;81.20;;;;;;5075095;28;20195;-58
2023/09/03 11:36:24;;;;;;;34.90;20.02;;;21.00;81.30;;;;;;5075234;28;20195;-58
2023/09/03 11:38:54;;;;;;;36.13;20.92;;;21.00;81.30;;;;;;5075157;28;20290;-59
2023/09/03 11:41:22;;;;;;;31.80;19.65;;;21.00;81.50;;;;;;5074615;28;20240;-57
2023/09/03 11:43:50;;;;;;;33.55;19.15;;;21.00;81.40;;;;;;5074937;28;20218;-56
2023/09/03 11:46:18;;;;;;;39.67;19.85;;;20.90;81.40;;;;;;5074618;28;20273;-56
2023/09/03 11:48:50;;;;;;;35.53;19.75;;;20.90;81.40;;;;;;5074419;28;20195;-57
2023/09/03 11:51:25;;;;;;;32.40;20.02;;;21.00;81.60;;;;;;5074882;28;20222;-58
2023/09/03 11:53:53;;;;;;;32.63;19.63;;;20.90;81.50;;;;;;5074556;28;20186;-58
2023/09/03 11:56:22;;;;;;;39.63;20.02;;;20.90;81.40;;;;;;5074618;28;20617;-57
2023/09/03 11:58:53;;;;;;;34.10;20.95;;;20.90;81.50;;;;;;5074815;28;20269;-57
2023/09/03 12:01:20;;;;;;;39.33;22.10;;;20.90;81.70;;;;;;5074402;28;20727;-57
2023/09/03 12:03:48;;;;;;;40.67;21.65;;;20.90;82.30;;;;;;5073891;28;20305;-57
2023/09/03 12:06:16;;;;;;;42.90;20.70;;;21.00;81.70;;;;;;5074349;28;20662;-55
2023/09/03 12:08:43;;;;;;;45.65;22.08;;;21.00;81.70;;;;;;5073628;28;20199;-56
2023/09/03 12:11:12;;;;;;;39.63;21.35;;;20.90;82.30;;;;;;5073966;28;20270;-58
2023/09/03 12:13:40;;;;;;;41.47;21.90;;;20.90;81.50;;;;;;5074468;28;20285;-57
2023/09/03 12:16:09;;;;;;;41.38;22.27;;;20.90;81.50;;;;;;5074455;28;20191;-57
2023/09/03 12:18:37;;;;;;;40.92;22.30;;;20.90;81.70;;;;;;5073899;28;20191;-57
2023/09/03 12:21:05;;;;;;;36.47;21.17;;;20.90;81.70;;;;;;5074461;28;20218;-57
2023/09/03 12:23:34;;;;;;;40.53;22.38;;;20.90;81.60;;;;;;5074292;28;20218;-55
2023/09/03 12:26:01;;;;;;;37.78;21.90;;;21.00;81.70;;;;;;5073868;28;20647;-55
2023/09/03 12:28:37;;;;;;;40.42;22.20;;;20.80;81.60;;;;;;5074230;28;20187;-56
2023/09/03 12:31:05;;;;;;;42.33;23.65;;;20.90;81.70;;;;;;5074572;28;20269;-55
2023/09/03 12:33:47;;;;;;;41.78;22.80;;;21.00;81.80;;;;;;5073976;28;20219;-58
2023/09/03 12:36:15;;;;;;;41.95;22.45;;;20.90;81.70;;;;;;5074313;28;20421;-55
2023/09/03 12:38:56;;;;;;;39.58;22.25;;;20.90;81.50;;;;;;5073818;28;20685;-56
2023/09/03 12:41:25;;;;;;;43.40;22.58;;;21.00;81.80;;;;;;5073513;28;20601;-56
2023/09/03 12:43:54;;;;;;;42.97;22.65;;;20.90;81.70;;;;;;5073513;28;20670;-57
2023/09/03 12:46:20;;;;;;;42.88;21.92;;;20.90;81.60;;;;;;5073999;28;20201;-57
2023/09/03 12:48:48;;;;;;;43.90;23.90;;;20.90;81.60;;;;;;5073321;28;20746;-57
2023/09/03 12:51:16;;;;;;;42.97;23.30;;;20.90;81.50;;;;;;5073787;28;20277;-58
2023/09/03 12:53:45;;;;;;;37.60;23.17;;;20.90;81.60;;;;;;5073825;28;20394;-57
2023/09/03 12:56:12;;;;;;;36.63;21.67;;;20.90;81.50;;;;;;5073480;28;20191;-56
2023/09/03 12:58:39;;;;;;;42.78;21.20;;;21.00;81.70;;;;;;5073600;28;20197;-55
2023/09/03 13:01:08;;;;;;;40.10;21.60;;;20.90;82.20;;;;;;5073661;28;20229;-57